Time;durP1;ratioP1;P1;durP2;ratioP2;P2;SDS_P1;SDS_P2;PMS_P1;PMS_P2;Temp;Humidity;BMP_temperature;BMP_pressure;BME280_temperature;BME280_humidity;BME280_pressure;Samples;Min_cycle;Max_cycle;Signal;HPM_P1;HPM_P2
2020/12/19 00:01:39;;;;;;;49.63;24.57;;;;;;;1.86;100.00;100914.44;1701176;81;21147;-47
2020/12/19 00:04:06;;;;;;;50.58;23.40;;;;;;;1.85;100.00;100923.30;1701596;82;21152;-46
2020/12/19 00:09:08;;;;;;;50.23;25.48;;;;;;;1.90;100.00;100924.20;1782719;79;23335;-48
2020/12/19 00:11:42;;;;;;;54.20;24.67;;;;;;;1.85;100.00;100929.95;1733242;80;21596;-47
2020/12/19 00:14:10;;;;;;;51.90;22.58;;;;;;;1.86;100.00;100925.07;1732076;80;21391;-53
2020/12/19 00:16:38;;;;;;;52.65;24.40;;;;;;;1.83;100.00;100915.33;1735410;80;21013;-47
2020/12/19 00:19:05;;;;;;;54.50;25.48;;;;;;;1.86;100.00;100923.73;1736429;80;21142;-46
2020/12/19 00:21:33;;;;;;;48.83;23.27;;;;;;;1.86;100.00;100921.08;1733669;80;21014;-46
2020/12/19 00:24:02;;;;;;;50.35;24.90;;;;;;;1.87;100.00;100924.22;1734383;80;21557;-49
2020/12/19 00:26:35;;;;;;;49.75;24.37;;;;;;;1.85;100.00;100928.62;1732061;80;21379;-47
2020/12/19 00:29:07;;;;;;;51.30;24.85;;;;;;;1.84;100.00;100919.75;1732765;80;21143;-50
2020/12/19 00:31:34;;;;;;;53.92;26.15;;;;;;;1.86;100.00;100927.73;1730706;80;21009;-48
2020/12/19 00:34:03;;;;;;;52.65;24.63;;;;;;;1.87;100.00;100925.55;1730883;80;21343;-48
2020/12/19 00:36:30;;;;;;;54.73;27.13;;;;;;;1.88;100.00;100925.98;1729988;80;21186;-49
2020/12/19 00:38:58;;;;;;;53.95;26.33;;;;;;;1.88;100.00;100925.98;1732323;80;21545;-48
2020/12/19 00:41:26;;;;;;;48.83;25.77;;;;;;;1.91;100.00;100928.64;1732281;80;21145;-48
2020/12/19 00:43:54;;;;;;;57.73;26.30;;;;;;;1.93;100.00;100929.55;1731543;80;21227;-48
2020/12/19 00:46:22;;;;;;;59.48;30.85;;;;;;;1.94;100.00;100928.67;1733879;80;21128;-47
2020/12/19 00:48:50;;;;;;;56.63;29.90;;;;;;;1.92;100.00;100919.80;1733150;80;21137;-47
2020/12/19 00:51:21;;;;;;;51.88;26.82;;;;;;;1.92;100.00;100919.80;1733009;80;21376;-47
2020/12/19 00:53:49;;;;;;;58.02;32.58;;;;;;;1.96;100.00;100921.56;1735454;80;21044;-47
2020/12/19 00:56:25;;;;;;;54.08;28.80;;;;;;;1.97;100.00;100924.70;1734230;80;21017;-47
2020/12/19 00:58:54;;;;;;;55.83;27.70;;;;;;;1.96;100.00;100924.22;1732571;80;21028;-48
2020/12/19 01:01:24;;;;;;;52.08;27.65;;;;;;;1.97;100.00;100920.70;1733616;80;21552;-47
2020/12/19 01:03:59;;;;;;;50.30;26.35;;;;;;;1.97;100.00;100928.69;1732931;80;22271;-47
2020/12/19 01:06:28;;;;;;;48.90;25.85;;;;;;;1.95;100.00;100922.45;1731810;80;21144;-48
2020/12/19 01:08:57;;;;;;;51.95;27.82;;;;;;;1.97;100.00;100919.79;1724921;80;21547;-47
2020/12/19 01:11:29;;;;;;;51.08;25.72;;;;;;;1.97;100.00;100920.70;1720213;81;21143;-47
2020/12/19 01:13:56;;;;;;;55.78;27.40;;;;;;;1.97;100.00;100919.79;1720556;80;21088;-48
2020/12/19 01:16:26;;;;;;;53.63;27.48;;;;;;;1.96;100.00;100926.88;1721736;81;21397;-48
2020/12/19 01:18:57;;;;;;;46.68;24.72;;;;;;;1.98;100.00;100927.80;1720058;81;21149;-48
2020/12/19 01:21:27;;;;;;;54.33;26.33;;;;;;;2.00;100.00;100929.13;1659237;83;21578;-50
2020/12/19 01:23:55;;;;;;;49.08;26.60;;;;;;;2.00;100.00;100928.69;1720759;80;21156;-52
2020/12/19 01:26:23;;;;;;;48.95;24.00;;;;;;;1.99;100.00;100923.37;1722266;80;21034;-47
2020/12/19 01:28:51;;;;;;;50.75;25.80;;;;;;;1.99;100.00;100928.24;1718827;81;21363;-47
2020/12/19 01:31:21;;;;;;;45.85;24.20;;;;;;;2.00;100.00;100921.14;1719903;80;21621;-49
2020/12/19 01:33:49;;;;;;;47.25;23.50;;;;;;;1.98;100.00;100925.14;1719076;80;21585;-47
2020/12/19 01:36:23;;;;;;;45.92;23.20;;;;;;;2.00;100.00;100927.35;1727242;80;21783;-48
2020/12/19 01:38:51;;;;;;;50.15;25.35;;;;;;;2.00;100.00;100931.34;1724005;80;21034;-48
2020/12/19 01:41:21;;;;;;;43.45;22.55;;;;;;;2.01;100.00;100937.55;1727287;80;21375;-48
2020/12/19 01:43:55;;;;;;;45.92;22.82;;;;;;;2.01;100.00;100934.89;1723317;80;21594;-48
2020/12/19 01:46:40;;;;;;;48.75;24.82;;;;;;;2.03;100.00;100930.04;1717164;81;21019;-48
2020/12/19 01:49:08;;;;;;;43.87;23.42;;;;;;;2.05;100.00;100934.91;1721019;80;21125;-47
2020/12/19 01:51:37;;;;;;;43.83;22.27;;;;;;;2.06;100.00;100931.36;1718655;80;21113;-48
2020/12/19 01:54:08;;;;;;;42.27;23.45;;;;;;;2.04;100.00;100934.47;1721936;81;22130;-47
2020/12/19 01:56:45;;;;;;;43.28;22.67;;;;;;;2.04;100.00;100927.81;1698778;82;21132;-47
2020/12/19 01:59:13;;;;;;;40.63;21.45;;;;;;;2.02;100.00;100929.56;1721109;81;21608;-47
2020/12/19 02:01:50;;;;;;;42.25;21.57;;;;;;;2.02;100.00;100930.89;1718481;81;21002;-47
2020/12/19 02:04:18;;;;;;;39.20;20.75;;;;;;;2.02;100.00;100932.22;1719364;80;21601;-48
2020/12/19 02:06:51;;;;;;;34.27;19.85;;;;;;;2.05;100.00;100936.69;1717787;81;21387;-48
2020/12/19 02:09:21;;;;;;;40.40;21.23;;;;;;;2.05;100.00;100928.26;1719917;81;21128;-46
2020/12/19 02:11:48;;;;;;;40.48;21.37;;;;;;;2.08;100.00;100926.95;1720305;81;21149;-45
2020/12/19 02:14:16;;;;;;;43.52;21.73;;;;;;;2.09;100.00;100928.72;1720441;80;21132;-49
2020/12/19 02:17:03;;;;;;;42.38;22.07;;;;;;;2.13;100.00;100931.38;1718569;80;21145;-48
2020/12/19 02:19:31;;;;;;;33.40;19.55;;;;;;;2.12;100.00;100932.27;1720765;80;21207;-48
2020/12/19 02:22:00;;;;;;;39.13;21.30;;;;;;;2.12;100.00;100936.25;1719471;80;21505;-48
2020/12/19 02:24:27;;;;;;;36.58;20.85;;;;;;;2.13;100.00;100932.70;1717229;81;21668;-46
2020/12/19 02:26:56;;;;;;;37.45;20.75;;;;;;;2.13;100.00;100934.03;1719053;81;21160;-48
2020/12/19 02:29:26;;;;;;;38.50;19.52;;;;;;;2.19;100.00;100928.76;1720890;80;21569;-47
2020/12/19 02:31:56;;;;;;;36.63;20.37;;;;;;;2.19;100.00;100925.66;1717660;81;22299;-48
2020/12/19 02:34:24;;;;;;;36.40;20.52;;;;;;;2.14;100.00;100922.09;1718604;80;21196;-48
2020/12/19 02:36:53;;;;;;;36.95;21.48;;;;;;;2.09;100.00;100930.05;1717143;81;21037;-48
2020/12/19 02:39:21;;;;;;;35.40;19.40;;;;;;;2.06;100.00;100934.02;1719577;80;21160;-49
2020/12/19 02:41:49;;;;;;;34.60;18.95;;;;;;;2.08;100.00;100936.27;1718485;80;21136;-48
2020/12/19 02:44:19;;;;;;;37.30;19.17;;;;;;;2.09;100.00;100931.38;1719441;80;21383;-46
2020/12/19 02:46:48;;;;;;;36.75;19.48;;;;;;;2.08;100.00;100926.95;1719203;80;21583;-45
2020/12/19 02:49:16;;;;;;;35.43;19.48;;;;;;;2.03;100.00;100930.04;1719992;81;21141;-46
2020/12/19 02:51:44;;;;;;;36.85;20.32;;;;;;;2.01;100.00;100927.80;1721045;80;21160;-47
2020/12/19 02:54:12;;;;;;;31.33;18.60;;;;;;;2.05;100.00;100932.25;1718209;81;21131;-45
2020/12/19 02:56:40;;;;;;;34.05;18.82;;;;;;;2.04;100.00;100933.14;1720398;80;22178;-45
2020/12/19 02:59:08;;;;;;;40.10;22.67;;;;;;;2.05;100.00;100936.24;1716632;81;21006;-45
2020/12/19 03:01:35;;;;;;;33.95;19.95;;;;;;;2.07;100.00;100937.56;1721647;80;21533;-45
2020/12/19 03:04:03;;;;;;;33.70;19.73;;;;;;;2.04;100.00;100935.80;1718223;80;21277;-47
2020/12/19 03:06:33;;;;;;;35.08;18.90;;;;;;;2.03;100.00;100941.13;1722672;80;21094;-46
2020/12/19 03:09:03;;;;;;;35.52;19.98;;;;;;;2.02;100.00;100929.56;1726036;80;21591;-46
2020/12/19 03:11:39;;;;;;;33.70;19.27;;;;;;;2.06;100.00;100927.37;1816681;76;22687;-46
2020/12/19 03:14:07;;;;;;;36.90;20.15;;;;;;;2.03;100.00;100927.82;1798380;77;20973;-45
2020/12/19 03:16:35;;;;;;;33.30;20.17;;;;;;;2.04;100.00;100930.48;1796918;77;22266;-45
2020/12/19 03:19:02;;;;;;;33.40;19.77;;;;;;;2.03;100.00;100926.05;1792212;77;21130;-46
2020/12/19 03:21:30;;;;;;;34.78;20.23;;;;;;;2.03;100.00;100926.05;1794925;77;20942;-46
2020/12/19 03:23:58;;;;;;;33.78;19.50;;;;;;;2.02;100.00;100916.27;1794525;77;21034;-45
2020/12/19 03:26:26;;;;;;;34.88;20.95;;;;;;;2.04;100.00;100917.17;1794448;77;21097;-46
2020/12/19 03:28:53;;;;;;;36.88;20.05;;;;;;;2.05;100.00;100934.91;1794908;77;21446;-45
2020/12/19 03:31:24;;;;;;;36.13;20.43;;;;;;;2.03;100.00;100934.03;1793932;77;21323;-46
2020/12/19 03:33:51;;;;;;;35.85;20.23;;;;;;;2.06;100.00;100934.02;1790963;77;20993;-46
2020/12/19 03:36:20;;;;;;;38.95;21.33;;;;;;;2.05;100.00;100934.91;1794564;77;21104;-45
2020/12/19 03:38:47;;;;;;;43.95;23.73;;;;;;;2.06;100.00;100931.36;1802629;77;21652;-45
2020/12/19 03:41:15;;;;;;;36.33;20.32;;;;;;;2.04;100.00;100933.14;1795706;77;21373;-45
2020/12/19 03:43:43;;;;;;;44.88;23.07;;;;;;;2.05;100.00;100934.91;1798915;77;21148;-44
2020/12/19 03:46:12;;;;;;;41.53;23.47;;;;;;;2.05;100.00;100934.91;1797727;77;21072;-50
2020/12/19 03:48:40;;;;;;;36.95;22.10;;;;;;;2.10;100.00;100939.80;1792242;77;21548;-50
2020/12/19 03:51:08;;;;;;;39.70;22.65;;;;;;;2.13;100.00;100932.29;1795817;77;21497;-50
2020/12/19 03:53:36;;;;;;;39.30;22.55;;;;;;;2.14;100.00;100933.18;1793703;77;21141;-47
2020/12/19 03:56:04;;;;;;;35.40;19.92;;;;;;;2.14;100.00;100935.84;1794900;77;22041;-47
2020/12/19 03:58:31;;;;;;;39.27;21.33;;;;;;;2.15;100.00;100937.61;1791323;77;21005;-47
2020/12/19 04:00:59;;;;;;;35.10;19.85;;;;;;;2.10;100.00;100934.48;1791301;77;21013;-48
2020/12/19 04:03:26;;;;;;;36.35;19.85;;;;;;;2.08;100.00;100936.27;1791018;77;21663;-47
2020/12/19 04:05:54;;;;;;;41.42;22.80;;;;;;;2.10;100.00;100943.80;1792248;77;21424;-47
2020/12/19 04:08:22;;;;;;;44.53;22.20;;;;;;;2.10;100.00;100943.80;1791114;77;21545;-48
2020/12/19 04:10:50;;;;;;;36.93;21.07;;;;;;;2.16;100.00;100948.25;1801711;76;20976;-48
2020/12/19 04:13:18;;;;;;;33.15;19.02;;;;;;;2.17;100.00;100937.16;1809201;76;21104;-47
2020/12/19 04:15:45;;;;;;;35.28;18.50;;;;;;;2.16;100.00;100938.05;1811796;76;20965;-45
2020/12/19 04:18:13;;;;;;;38.00;21.27;;;;;;;2.17;100.00;100935.83;1810503;76;22027;-45
2020/12/19 04:20:41;;;;;;;36.00;20.08;;;;;;;2.13;100.00;100939.36;1810188;76;21079;-47
2020/12/19 04:23:09;;;;;;;39.35;20.52;;;;;;;2.13;100.00;100936.69;1806909;76;21525;-46
2020/12/19 04:25:41;;;;;;;33.85;18.55;;;;;;;2.12;100.00;100944.23;1808291;76;21367;-50
2020/12/19 04:28:09;;;;;;;35.95;20.37;;;;;;;2.13;100.00;100939.36;1807039;76;21021;-50
2020/12/19 04:30:36;;;;;;;32.98;18.80;;;;;;;2.13;100.00;100940.69;1810886;76;21362;-49
2020/12/19 04:33:04;;;;;;;41.05;21.52;;;;;;;2.14;100.00;100938.50;1809611;76;21663;-50
2020/12/19 04:35:32;;;;;;;36.55;20.55;;;;;;;2.13;100.00;100943.34;1813589;76;22146;-49
2020/12/19 04:38:00;;;;;;;36.28;20.10;;;;;;;2.09;100.00;100939.37;1807915;76;20992;-50
2020/12/19 04:40:27;;;;;;;37.48;19.70;;;;;;;2.06;100.00;100943.33;1811450;76;20953;-46
2020/12/19 04:42:56;;;;;;;39.80;21.87;;;;;;;2.07;100.00;100939.78;1811456;76;21464;-46
2020/12/19 04:45:24;;;;;;;42.70;22.22;;;;;;;2.05;100.00;100932.25;1807557;76;21147;-50
2020/12/19 04:47:52;;;;;;;37.53;19.95;;;;;;;2.10;100.00;100937.59;1807205;76;21499;-50
2020/12/19 04:50:20;;;;;;;38.98;21.15;;;;;;;2.14;100.00;100943.82;1807731;76;20935;-48
2020/12/19 04:52:48;;;;;;;37.67;19.42;;;;;;;2.12;100.00;100938.91;1808253;76;21267;-49
2020/12/19 04:55:16;;;;;;;37.28;18.57;;;;;;;2.13;100.00;100939.36;1809296;76;21443;-48
2020/12/19 04:57:44;;;;;;;40.48;21.12;;;;;;;2.15;100.00;100937.61;1787530;76;21085;-48
2020/12/19 05:00:12;;;;;;;38.25;20.12;;;;;;;2.14;100.00;100941.16;1810199;76;21200;-47
2020/12/19 05:02:40;;;;;;;43.30;21.02;;;;;;;2.14;100.00;100934.51;1807279;76;21071;-48
2020/12/19 05:05:07;;;;;;;40.63;20.17;;;;;;;2.12;100.00;100926.94;1807393;76;21478;-49
2020/12/19 05:07:37;;;;;;;38.40;19.80;;;;;;;2.12;100.00;100925.61;1808261;76;21361;-48
2020/12/19 05:10:05;;;;;;;36.13;20.05;;;;;;;2.10;100.00;100927.83;1771443;76;21131;-48
2020/12/19 05:12:34;;;;;;;38.33;19.57;;;;;;;2.13;100.00;100928.71;1790097;77;21110;-48
2020/12/19 05:15:05;;;;;;;38.00;20.57;;;;;;;2.09;100.00;100926.06;1790779;77;21191;-48
2020/12/19 05:17:33;;;;;;;42.73;21.40;;;;;;;2.05;100.00;100929.59;1792254;77;21202;-47
2020/12/19 05:20:00;;;;;;;43.95;21.50;;;;;;;1.99;100.00;100929.58;1790545;77;21884;-48
2020/12/19 05:22:28;;;;;;;37.28;19.27;;;;;;;1.96;100.00;100929.55;1789911;77;21528;-48
2020/12/19 05:24:56;;;;;;;39.05;19.92;;;;;;;1.96;100.00;100936.20;1760039;77;21048;-47
2020/12/19 05:27:24;;;;;;;41.30;21.35;;;;;;;1.97;100.00;100934.02;1791570;77;21002;-48
2020/12/19 05:29:51;;;;;;;39.10;20.90;;;;;;;1.97;100.00;100935.34;1789691;77;21157;-47
2020/12/19 05:32:19;;;;;;;38.65;20.10;;;;;;;1.97;100.00;100938.41;1789558;77;21368;-48
2020/12/19 05:34:48;;;;;;;38.70;19.37;;;;;;;1.96;100.00;100933.98;1792536;77;21156;-48
2020/12/19 05:37:17;;;;;;;35.78;18.67;;;;;;;1.96;100.00;100938.86;1758659;77;21096;-55
2020/12/19 05:39:52;;;;;;;35.00;18.73;;;;;;;1.96;100.00;100940.19;1795483;77;21549;-47
2020/12/19 05:42:23;;;;;;;41.25;22.45;;;;;;;1.97;100.00;100937.09;1790383;77;21092;-46
2020/12/19 05:44:50;;;;;;;36.28;19.48;;;;;;;1.99;100.00;100949.97;1794385;77;21337;-46
2020/12/19 05:47:19;;;;;;;33.53;19.35;;;;;;;1.99;100.00;100950.86;1792937;77;21127;-46
2020/12/19 05:49:47;;;;;;;35.70;19.65;;;;;;;1.98;100.00;100949.09;1791614;77;20967;-46
2020/12/19 05:52:17;;;;;;;34.58;18.20;;;;;;;1.99;100.00;100955.29;1792716;77;21068;-45
2020/12/19 05:54:45;;;;;;;37.70;19.87;;;;;;;1.99;100.00;100961.50;1794888;77;21012;-48
2020/12/19 05:57:12;;;;;;;36.85;19.87;;;;;;;2.02;100.00;100968.59;1793060;77;21969;-47
2020/12/19 05:59:40;;;;;;;35.55;19.07;;;;;;;2.03;100.00;100971.28;1794332;77;20975;-48
2020/12/19 06:02:08;;;;;;;40.88;21.52;;;;;;;2.05;100.00;100980.14;1791914;77;20969;-51
2020/12/19 06:04:35;;;;;;;40.63;20.48;;;;;;;2.09;100.00;100973.95;1788258;77;21519;-48
2020/12/19 06:07:03;;;;;;;39.45;21.73;;;;;;;2.14;100.00;100977.97;1737178;79;21017;-49
2020/12/19 06:09:31;;;;;;;42.53;24.12;;;;;;;2.14;100.00;100984.62;1773233;77;21623;-49
2020/12/19 06:12:08;;;;;;;40.88;21.05;;;;;;;2.13;100.00;100985.92;1790898;77;21097;-47
2020/12/19 06:14:41;;;;;;;43.20;22.82;;;;;;;2.14;100.00;100993.94;1788979;77;21256;-47
2020/12/19 06:17:32;;;;;;;49.75;23.77;;;;;;;2.13;100.00;101006.80;1791073;77;20942;-51
2020/12/19 06:20:02;;;;;;;48.00;23.85;;;;;;;2.16;100.00;101008.57;1792320;77;21092;-52
2020/12/19 06:22:29;;;;;;;44.55;22.37;;;;;;;2.13;100.00;100997.90;1762607;79;21435;-58
2020/12/19 06:24:58;;;;;;;37.20;21.50;;;;;;;2.15;100.00;101009.46;1759809;79;21108;-52
2020/12/19 06:27:34;;;;;;;45.38;24.98;;;;;;;2.18;100.00;101013.44;1792854;77;21103;-47
2020/12/19 06:30:02;;;;;;;43.78;22.35;;;;;;;2.20;100.00;101007.70;1794897;77;21025;-47
2020/12/19 06:32:31;;;;;;;37.33;18.95;;;;;;;2.22;100.00;101025.89;1792727;77;20938;-46
2020/12/19 06:35:10;;;;;;;41.30;21.02;;;;;;;2.22;100.00;101027.22;1788882;77;21116;-47
2020/12/19 06:37:44;;;;;;;35.25;18.65;;;;;;;2.27;100.00;101032.12;1807179;76;22707;-45
2020/12/19 06:40:18;;;;;;;38.30;19.75;;;;;;;2.21;100.00;101037.42;1784571;77;20955;-44
2020/12/19 06:42:49;;;;;;;36.28;19.12;;;;;;;2.21;100.00;101031.66;1775847;79;21347;-48
2020/12/19 06:45:28;;;;;;;35.88;19.52;;;;;;;2.25;100.00;101044.55;1773243;79;21001;-47
2020/12/19 06:47:57;;;;;;;36.68;19.15;;;;;;;2.22;100.00;101040.53;1774670;79;20951;-47
2020/12/19 06:50:25;;;;;;;32.17;17.17;;;;;;;2.23;100.00;101040.52;1773674;79;21585;-48
2020/12/19 06:52:58;;;;;;;37.55;20.55;;;;;;;2.31;100.00;101041.91;1773455;79;20947;-48
2020/12/19 06:55:28;;;;;;;37.30;20.85;;;;;;;2.34;100.00;101036.58;1774258;79;21501;-48
2020/12/19 06:57:57;;;;;;;35.75;19.40;;;;;;;2.31;100.00;101032.14;1775268;79;21489;-49
2020/12/19 07:00:31;;;;;;;38.38;20.17;;;;;;;2.31;100.00;101036.58;1772776;79;21009;-48
2020/12/19 07:03:01;;;;;;;38.33;19.82;;;;;;;2.29;100.00;101035.67;1774307;79;21120;-49
2020/12/19 07:05:33;;;;;;;39.25;21.10;;;;;;;2.31;100.00;101029.93;1773733;79;20966;-49
2020/12/19 07:08:22;;;;;;;39.00;21.07;;;;;;;2.31;100.00;101036.58;1773863;79;21394;-56
2020/12/19 07:10:57;;;;;;;38.00;24.53;;;;;;;2.42;100.00;101036.18;1814835;75;27530;-52
2020/12/19 07:13:26;;;;;;;38.15;22.80;;;;;;;2.37;100.00;101027.28;1799925;77;21959;-51
2020/12/19 07:15:54;;;;;;;46.05;24.47;;;;;;;2.38;100.00;101025.06;1771789;78;21398;-60
2020/12/19 07:18:33;;;;;;;43.63;25.77;;;;;;;2.40;100.00;101023.31;1807372;77;21731;-51
2020/12/19 07:21:09;;;;;;;49.80;28.87;;;;;;;2.43;100.00;101023.31;1802537;77;20996;-55
2020/12/19 07:23:38;;;;;;;47.73;28.00;;;;;;;2.42;100.00;101022.87;1798839;77;21134;-50
2020/12/19 07:26:08;;;;;;;52.53;29.25;;;;;;;2.41;100.00;101026.42;1800076;77;20930;-50
2020/12/19 07:28:37;;;;;;;46.55;26.73;;;;;;;2.40;100.00;101024.65;1800590;77;22263;-50
2020/12/19 07:31:05;;;;;;;54.60;29.60;;;;;;;2.44;100.00;101026.41;1800503;77;21044;-49
2020/12/19 07:33:32;;;;;;;48.38;27.27;;;;;;;2.46;100.00;101029.98;1801894;77;20997;-51
2020/12/19 07:36:00;;;;;;;50.70;29.70;;;;;;;2.48;100.00;101025.55;1776546;77;21559;-49
2020/12/19 07:38:28;;;;;;;51.58;26.70;;;;;;;2.49;100.00;101024.66;1768947;77;21406;-48
2020/12/19 07:40:56;;;;;;;55.50;26.75;;;;;;;2.47;100.00;101029.09;1803234;77;21375;-48
2020/12/19 07:43:24;;;;;;;45.52;26.45;;;;;;;2.47;100.00;101025.10;1802827;77;21134;-46
2020/12/19 07:45:58;;;;;;;48.35;25.05;;;;;;;2.48;100.00;101025.55;1804480;77;21508;-49
2020/12/19 07:48:25;;;;;;;48.38;25.50;;;;;;;2.50;100.00;101028.20;1799230;77;21596;-49
2020/12/19 07:50:53;;;;;;;47.05;26.48;;;;;;;2.52;100.00;101032.66;1801210;77;21135;-49
2020/12/19 07:53:21;;;;;;;44.18;24.63;;;;;;;2.52;100.00;101037.11;1801083;77;21608;-48
2020/12/19 07:55:50;;;;;;;45.50;25.90;;;;;;;2.54;100.00;101037.54;1799224;77;21131;-49
2020/12/19 07:58:19;;;;;;;46.60;25.60;;;;;;;2.56;100.00;101038.91;1800549;77;21632;-49
2020/12/19 08:00:48;;;;;;;43.45;24.27;;;;;;;2.59;100.00;101044.22;1801279;77;21433;-48
2020/12/19 08:03:16;;;;;;;45.17;25.40;;;;;;;2.61;100.00;101046.02;1804488;77;21795;-50
2020/12/19 08:05:44;;;;;;;53.02;26.17;;;;;;;2.62;100.00;101049.12;1804860;77;22254;-50
2020/12/19 08:08:12;;;;;;;50.70;27.55;;;;;;;2.63;100.00;101046.90;1803824;77;21568;-50
2020/12/19 08:10:41;;;;;;;52.67;26.30;;;;;;;2.62;100.00;101047.79;1801179;77;21036;-50
2020/12/19 08:13:11;;;;;;;51.40;27.55;;;;;;;2.62;100.00;101053.12;1803290;77;21135;-51
2020/12/19 08:15:39;;;;;;;46.40;26.55;;;;;;;2.63;100.00;101049.56;1803947;77;20997;-52
2020/12/19 08:18:07;;;;;;;57.43;29.80;;;;;;;2.68;100.00;101048.70;1804753;77;21376;-52
2020/12/19 08:20:36;;;;;;;49.65;27.20;;;;;;;2.74;100.00;101046.05;1800370;77;20986;-55
2020/12/19 08:23:06;;;;;;;58.38;28.65;;;;;;;2.80;100.00;101048.72;1797741;77;21635;-56
2020/12/19 08:25:35;;;;;;;53.10;28.77;;;;;;;2.81;100.00;101045.16;1804142;77;21612;-51
2020/12/19 08:28:02;;;;;;;54.75;28.23;;;;;;;2.79;100.00;101037.63;1804692;77;21009;-51
2020/12/19 08:30:32;;;;;;;46.90;27.00;;;;;;;2.81;100.00;101039.83;1798953;77;21375;-51
2020/12/19 08:33:04;;;;;;;54.13;30.50;;;;;;;2.82;100.00;101042.94;1797092;77;21609;-52
2020/12/19 08:35:45;;;;;;;65.10;33.35;;;;;;;2.83;100.00;101041.63;1799023;77;21151;-52
2020/12/19 08:38:21;;;;;;;58.00;31.20;;;;;;;2.86;100.00;101040.73;1800661;77;21088;-51
2020/12/19 08:40:51;;;;;;;57.85;30.00;;;;;;;2.87;100.00;101039.84;1802021;77;21088;-52
2020/12/19 08:43:21;;;;;;;60.98;32.35;;;;;;;2.87;100.00;101042.50;1801068;77;21222;-51
2020/12/19 08:45:49;;;;;;;47.13;26.45;;;;;;;2.89;100.00;101040.75;1770529;77;21119;-51
2020/12/19 08:48:24;;;;;;;47.70;25.35;;;;;;;2.90;100.00;101037.19;1770172;77;21285;-50
2020/12/19 08:50:54;;;;;;;49.10;26.97;;;;;;;2.94;100.00;101034.10;1801695;77;21272;-51
2020/12/19 08:53:24;;;;;;;47.10;24.55;;;;;;;2.92;100.00;101027.41;1802107;77;21619;-52
2020/12/19 08:55:53;;;;;;;49.35;26.57;;;;;;;2.92;100.00;101028.74;1802898;77;22047;-51
2020/12/19 08:58:31;;;;;;;41.88;24.10;;;;;;;2.93;100.00;101026.97;1802460;77;21597;-51
2020/12/19 09:01:02;;;;;;;41.10;24.02;;;;;;;2.97;100.00;101022.98;1800725;77;20989;-51
2020/12/19 09:03:32;;;;;;;47.50;26.85;;;;;;;2.99;100.00;101018.56;1797740;77;21199;-53
2020/12/19 09:06:09;;;;;;;50.85;27.07;;;;;;;2.99;100.00;101020.34;1800576;77;20946;-55
2020/12/19 09:08:47;;;;;;;46.08;23.50;;;;;;;2.97;100.00;101009.66;1806127;77;21337;-54
2020/12/19 09:11:26;;;;;;;46.18;25.30;;;;;;;2.98;100.00;101004.77;1813452;77;21075;-53
2020/12/19 09:14:09;;;;;;;44.35;23.83;;;;;;;3.01;100.00;101007.45;1809530;76;21579;-49
2020/12/19 09:16:50;;;;;;;44.15;25.20;;;;;;;3.06;100.00;101001.67;1806004;77;21143;-50
2020/12/19 09:19:19;;;;;;;44.45;24.80;;;;;;;3.11;100.00;100996.36;1805795;77;21111;-49
2020/12/19 09:22:00;;;;;;;44.77;24.40;;;;;;;3.17;100.00;101003.45;1809118;76;21383;-49
2020/12/19 09:24:28;;;;;;;41.58;24.35;;;;;;;3.22;100.00;101009.68;1810450;76;21000;-49
2020/12/19 09:26:56;;;;;;;41.53;23.12;;;;;;;3.26;100.00;101006.13;1812024;76;21187;-49
2020/12/19 09:29:23;;;;;;;42.55;23.73;;;;;;;3.29;100.00;101006.11;1776735;78;21601;-48
2020/12/19 09:31:51;;;;;;;40.50;24.37;;;;;;;3.34;100.00;101009.66;1777726;78;21583;-50
2020/12/19 09:34:19;;;;;;;42.35;23.90;;;;;;;3.41;100.00;101015.02;1774468;78;21291;-49
2020/12/19 09:36:46;;;;;;;36.15;22.55;;;;;;;3.45;100.00;101010.54;1779209;78;21561;-49
2020/12/19 09:39:14;;;;;;;41.63;22.90;;;;;;;3.45;100.00;101006.98;1773532;78;22002;-57
2020/12/19 09:41:42;;;;;;;35.60;20.75;;;;;;;3.46;99.92;101010.98;1781118;78;21109;-49
2020/12/19 09:44:10;;;;;;;39.40;24.00;;;;;;;3.44;99.59;101007.44;1780562;78;21584;-55
2020/12/19 09:46:39;;;;;;;41.60;22.32;;;;;;;3.43;99.57;101009.67;1779794;78;21596;-50
2020/12/19 09:49:06;;;;;;;39.18;22.22;;;;;;;3.45;99.52;101010.54;1776034;78;21730;-56
2020/12/19 09:51:34;;;;;;;42.30;23.57;;;;;;;3.47;99.39;101011.45;1777005;78;21030;-54
2020/12/19 09:54:02;;;;;;;43.87;24.02;;;;;;;3.47;99.21;101011.45;1773148;78;21792;-53
2020/12/19 09:56:38;;;;;;;36.98;22.48;;;;;;;3.48;99.27;101011.00;1775733;78;20967;-55
2020/12/19 09:59:05;;;;;;;49.73;26.82;;;;;;;3.50;99.22;101007.43;1775158;78;22101;-49
2020/12/19 10:01:33;;;;;;;51.92;29.70;;;;;;;3.50;98.92;101008.76;1776255;78;21143;-49
2020/12/19 10:04:01;;;;;;;51.10;28.12;;;;;;;3.48;98.92;101009.22;1775662;79;21192;-50
2020/12/19 10:06:29;;;;;;;51.33;28.80;;;;;;;3.45;98.94;101007.88;1773484;78;21014;-51
2020/12/19 10:08:56;;;;;;;44.75;26.62;;;;;;;3.45;99.09;101005.20;1774772;78;20979;-48
2020/12/19 10:11:25;;;;;;;47.95;28.52;;;;;;;3.45;99.15;101005.20;1735768;79;21468;-49
2020/12/19 10:13:52;;;;;;;50.80;29.37;;;;;;;3.46;99.21;101006.98;1717373;81;21616;-50
2020/12/19 10:16:20;;;;;;;51.80;29.30;;;;;;;3.46;99.14;101004.31;1719158;81;21127;-48
2020/12/19 10:18:47;;;;;;;52.80;31.52;;;;;;;3.45;99.15;101002.55;1730569;80;21563;-48
2020/12/19 10:21:15;;;;;;;49.70;29.32;;;;;;;3.45;99.27;101005.20;1731284;81;21147;-50
2020/12/19 10:23:43;;;;;;;55.12;31.20;;;;;;;3.52;99.42;101005.67;1727863;81;21426;-55
2020/12/19 10:26:11;;;;;;;53.25;30.57;;;;;;;3.53;99.26;101008.77;1719066;81;21147;-57
2020/12/19 10:28:39;;;;;;;49.18;29.40;;;;;;;3.54;99.17;101013.21;1719279;81;21183;-57
2020/12/19 10:31:06;;;;;;;52.13;29.57;;;;;;;3.51;99.12;101005.20;1717039;81;21161;-50
2020/12/19 10:33:34;;;;;;;46.50;27.30;;;;;;;3.50;99.22;101004.76;1717915;81;21698;-50
2020/12/19 10:36:02;;;;;;;53.17;28.73;;;;;;;3.56;99.34;101008.75;1723352;81;21208;-51
2020/12/19 10:38:30;;;;;;;45.83;26.80;;;;;;;3.58;99.18;101010.98;1718484;81;21191;-49
2020/12/19 10:40:59;;;;;;;52.00;29.23;;;;;;;3.62;99.22;101004.77;1721527;81;21198;-49
2020/12/19 10:43:27;;;;;;;52.20;27.48;;;;;;;3.65;99.12;101006.08;1705949;81;21029;-50
2020/12/19 10:45:54;;;;;;;49.35;28.85;;;;;;;3.67;99.02;101001.64;1688687;83;21207;-49
2020/12/19 10:48:22;;;;;;;49.83;28.52;;;;;;;3.70;98.98;100998.52;1716116;81;21390;-50
2020/12/19 10:50:50;;;;;;;52.15;31.10;;;;;;;3.75;98.97;101004.28;1720767;81;21750;-50
2020/12/19 10:53:17;;;;;;;47.90;28.50;;;;;;;3.80;98.77;101001.61;1715860;81;21025;-50
2020/12/19 10:55:45;;;;;;;54.38;29.12;;;;;;;3.82;98.71;100991.36;1719112;81;21190;-56
2020/12/19 10:58:13;;;;;;;49.42;28.57;;;;;;;3.86;98.55;100983.79;1718126;80;21155;-49
2020/12/19 11:00:41;;;;;;;54.08;30.25;;;;;;;3.89;98.29;100991.80;1719076;81;22186;-50
2020/12/19 11:03:09;;;;;;;48.92;27.90;;;;;;;3.89;98.15;100995.80;1716080;81;21183;-50
2020/12/19 11:05:40;;;;;;;58.68;32.35;;;;;;;3.89;97.97;100995.80;1717679;81;21584;-48
2020/12/19 11:08:08;;;;;;;52.88;28.83;;;;;;;3.91;97.96;100994.45;1713507;81;21561;-55
2020/12/19 11:10:36;;;;;;;48.73;27.48;;;;;;;3.94;97.76;100993.09;1729832;78;21532;-53
2020/12/19 11:13:04;;;;;;;55.12;30.02;;;;;;;3.95;97.70;100990.89;1769458;78;21332;-56
2020/12/19 11:15:32;;;;;;;55.20;28.98;;;;;;;3.97;97.49;100987.76;1768822;78;21167;-50
2020/12/19 11:18:00;;;;;;;49.95;28.70;;;;;;;3.98;97.33;100988.19;1765945;79;21607;-57
2020/12/19 11:20:28;;;;;;;52.23;29.32;;;;;;;3.98;97.24;100992.20;1766777;78;21156;-58
2020/12/19 11:22:55;;;;;;;53.17;30.82;;;;;;;3.98;97.13;100996.20;1764437;78;21136;-56